Time;durP1;ratioP1;P1;durP2;ratioP2;P2;SDS_P1;SDS_P2;PMS_P1;PMS_P2;Temp;Humidity;BMP_temperature;BMP_pressure;BME280_temperature;BME280_humidity;BME280_pressure;Samples;Min_cycle;Max_cycle;Signal;HPM_P1;HPM_P2
2022/02/20 15:41:05;;;;;;;;;;;;;;;5.42;76.04;99481.30;1836939;76;21168;-71
2022/02/20 15:43:31;;;;;;;;;;;;;;;5.44;76.18;99475.87;1842544;77;20213;-70
2022/02/20 15:45:57;;;;;;;;;;;;;;;5.45;76.33;99459.02;1836765;76;20190;-72
2022/02/20 15:48:23;;;;;;;;;;;;;;;5.44;76.44;99451.58;1784869;78;20228;-72
2022/02/20 15:50:53;;;;;;;;;;;;;;;5.43;76.56;99457.84;1820941;78;20172;-71
2022/02/20 15:53:22;;;;;;;;;;;;;;;5.43;76.68;99453.88;1816577;77;21692;-71
2022/02/20 15:55:47;;;;;;;;;;;;;;;5.42;76.77;99456.19;1807339;77;20209;-71
2022/02/20 15:58:16;;;;;;;;;;;;;;;5.40;76.85;99439.67;1810597;77;20182;-71
2022/02/20 16:00:42;;;;;;;;;;;;;;;5.39;76.99;99437.17;1801833;77;20615;-72
2022/02/20 16:03:08;;;;;;;;;;;;;;;5.36;77.07;99437.00;1807155;77;20183;-71
2022/02/20 16:05:33;;;;;;;;;;;;;;;5.35;77.19;99431.86;1811204;77;21075;-71
2022/02/20 16:07:59;;;;;;;;;;;;;;;5.34;77.29;99419.17;1805007;77;20146;-71
2022/02/20 16:10:25;;;;;;;;;;;;;;;5.35;77.39;99414.19;1809630;77;20317;-71
2022/02/20 16:12:51;;;;;;;;;;;;;;;5.35;77.51;99410.23;1804899;77;20206;-72
2022/02/20 16:15:17;;;;;;;;;;;;;;;5.37;77.60;99410.91;1806771;77;20290;-71
2022/02/20 16:17:43;;;;;;;;;;;;;;;5.37;77.69;99412.73;1806457;77;21936;-71
2022/02/20 16:20:10;;;;;;;;;;;;;;;5.36;77.81;99396.03;1801690;77;20211;-71
2022/02/20 16:22:36;;;;;;;;;;;;;;;5.39;77.90;99391.73;1805373;77;20263;-71
2022/02/20 16:25:02;;;;;;;;;;;;;;;5.41;77.96;99388.95;1805643;77;20219;-73
2022/02/20 16:27:27;;;;;;;;;;;;;;;5.46;78.03;99382.66;1812290;77;20224;-71
2022/02/20 16:29:53;;;;;;;;;;;;;;;5.46;78.10;99378.20;1808576;77;21099;-71
2022/02/20 16:32:19;;;;;;;;;;;;;;;5.49;78.18;99375.23;1801007;77;20257;-71
2022/02/20 16:34:45;;;;;;;;;;;;;;;5.49;78.27;99371.76;1799254;77;20211;-70
2022/02/20 16:37:12;;;;;;;;;;;;;;;5.48;78.40;99372.77;1793420;77;20150;-70
2022/02/20 16:39:38;;;;;;;;;;;;;;;5.49;78.50;99365.98;1804475;77;20196;-72
2022/02/20 16:42:05;;;;;;;;;;;;;;;5.49;78.57;99362.02;1764853;79;21090;-72
2022/02/20 16:44:31;;;;;;;;;;;;;;;5.48;78.70;99351.13;1777653;79;20238;-72
2022/02/20 16:46:59;;;;;;;;;;;;;;;5.49;78.77;99360.69;1768983;79;20463;-72
2022/02/20 16:49:25;;;;;;;;;;;;;;;5.49;78.87;99347.95;1788628;79;20150;-73
2022/02/20 16:51:51;;;;;;;;;;;;;;;5.50;78.96;99339.05;1783446;79;20475;-73
2022/02/20 16:54:17;;;;;;;;;;;;;;;5.50;79.05;99346.48;1798478;79;21137;-73
2022/02/20 16:56:43;;;;;;;;;;;;;;;5.53;79.18;99341.36;1780654;79;20164;-73
2022/02/20 16:59:13;;;;;;;;;;;;;;;5.57;79.34;99338.72;1767193;79;20202;-73
2022/02/20 17:01:36;;;;;;;;;;;;;;;5.62;79.46;99344.85;1767267;81;20165;-73
2022/02/20 17:04:03;;;;;;;;;;;;;;;5.67;79.60;99335.42;1767059;78;20155;-73
2022/02/20 17:06:29;;;;;;;;;;;;;;;5.68;79.71;99328.31;1772819;80;21149;-72
2022/02/20 17:08:55;;;;;;;;;;;;;;;5.70;79.84;99327.16;1760052;81;20713;-73
2022/02/20 17:11:21;;;;;;;;;;;;;;;5.73;79.95;99329.98;1760694;80;20145;-73
2022/02/20 17:13:48;;;;;;;;;;;;;;;5.73;80.04;99316.76;1766318;79;20467;-73
2022/02/20 17:16:14;;;;;;;;;;;;;;;5.76;80.16;99309.81;1769653;80;20159;-73
2022/02/20 17:18:40;;;;;;;;;;;;;;;5.78;80.22;99303.84;1769629;79;21774;-73
2022/02/20 17:21:06;;;;;;;;;;;;;;;5.80;80.29;99307.17;1772192;79;20227;-72
2022/02/20 17:23:32;;;;;;;;;;;;;;;5.82;80.35;99301.20;1758472;80;20184;-73
2022/02/20 17:25:58;;;;;;;;;;;;;;;5.85;80.47;99307.48;1768150;80;20874;-72
2022/02/20 17:28:24;;;;;;;;;;;;;;;5.86;80.50;99294.63;1764777;79;20181;-72
2022/02/20 17:30:50;;;;;;;;;;;;;;;5.89;80.57;99292.96;1763658;78;21603;-73
2022/02/20 17:33:15;;;;;;;;;;;;;;;5.92;80.68;99288.66;1754258;80;20196;-72
2022/02/20 17:35:41;;;;;;;;;;;;;;;5.94;80.73;99293.30;1764763;79;20208;-73
2022/02/20 17:38:10;;;;;;;;;;;;;;;5.93;80.77;99288.98;1773415;80;20153;-73
2022/02/20 17:40:35;;;;;;;;;;;;;;;5.92;80.83;99277.58;1787445;77;20518;-73
2022/02/20 17:43:01;;;;;;;;;;;;;;;5.93;80.89;99275.27;1799339;78;21161;-73
2022/02/20 17:45:27;;;;;;;;;;;;;;;5.94;80.96;99268.99;1803017;77;20238;-72
2022/02/20 17:47:53;;;;;;;;;;;;;;;5.95;81.00;99273.77;1836418;77;20187;-73
2022/02/20 17:50:20;;;;;;;;;;;;;;;5.98;81.04;99265.52;1801772;77;20255;-72
2022/02/20 17:52:46;;;;;;;;;;;;;;;6.03;81.08;99267.14;1803385;77;20658;-73
2022/02/20 17:55:12;;;;;;;;;;;;;;;6.05;81.08;99269.63;1808937;77;21094;-73
2022/02/20 17:57:38;;;;;;;;;;;;;;;6.08;81.13;99261.34;1812132;77;20243;-72
2022/02/20 18:00:05;;;;;;;;;;;;;;;6.10;81.17;99260.17;1809675;77;20250;-72
2022/02/20 18:02:31;;;;;;;;;;;;;;;6.15;81.21;99255.70;1807054;77;20434;-72
2022/02/20 18:04:57;;;;;;;;;;;;;;;6.17;81.24;99255.86;1809516;77;20172;-72
2022/02/20 18:07:24;;;;;;;;;;;;;;;6.22;81.25;99250.89;1815245;77;21146;-73
2022/02/20 18:09:50;;;;;;;;;;;;;;;6.24;81.27;99242.77;1807885;77;20207;-72
2022/02/20 18:12:15;;;;;;;;;;;;;;;6.23;81.27;99245.91;1804366;77;20247;-72
2022/02/20 18:14:41;;;;;;;;;;;;;;;6.24;81.29;99221.09;1803286;77;20185;-72
2022/02/20 18:17:07;;;;;;;;;;;;;;;6.25;81.33;99237.31;1808600;77;20156;-72
2022/02/20 18:19:33;;;;;;;;;;;;;;;6.26;81.37;99245.55;1807310;77;21757;-72
2022/02/20 18:22:02;;;;;;;;;;;;;;;6.27;81.38;99230.02;1807126;77;20273;-73
2022/02/20 18:24:27;;;;;;;;;;;;;;;6.28;81.43;99218.44;1809330;77;20183;-70
2022/02/20 18:26:53;;;;;;;;;;;;;;;6.29;81.44;99228.53;1811904;77;20490;-72
2022/02/20 18:29:19;;;;;;;;;;;;;;;6.27;81.44;99216.77;1805411;77;20178;-72
2022/02/20 18:31:45;;;;;;;;;;;;;;;6.27;81.47;99214.62;1813958;77;21119;-72
2022/02/20 18:34:14;;;;;;;;;;;;;;;6.28;81.51;99209.66;1803342;77;20235;-72
2022/02/20 18:36:41;;;;;;;;;;;;;;;6.32;81.52;99217.09;1806265;77;20183;-71
2022/02/20 18:39:08;;;;;;;;;;;;;;;6.34;81.52;99212.94;1811517;77;20181;-73
2022/02/20 18:41:35;;;;;;;;;;;;;;;6.33;81.50;99198.87;1766176;77;20208;-72
2022/02/20 18:44:02;;;;;;;;;;;;;;;6.34;81.55;99209.80;1781456;79;21057;-72
2022/02/20 18:46:28;;;;;;;;;;;;;;;6.36;81.52;99205.17;1758662;80;20448;-72
2022/02/20 18:48:54;;;;;;;;;;;;;;;6.40;81.53;99204.33;1761242;79;20290;-72
2022/02/20 18:51:20;;;;;;;;;;;;;;;6.42;81.55;99193.87;1759992;79;20151;-72
2022/02/20 18:53:46;;;;;;;;;;;;;;;6.45;81.56;99185.59;1758496;79;20806;-73
2022/02/20 18:56:12;;;;;;;;;;;;;;;6.47;81.54;99183.58;1761313;80;21210;-72
2022/02/20 18:58:39;;;;;;;;;;;;;;;6.48;81.53;99181.27;1755663;79;20226;-72
2022/02/20 19:01:05;;;;;;;;;;;;;;;6.50;81.52;99184.58;1755768;79;20153;-73
2022/02/20 19:03:31;;;;;;;;;;;;;;;6.56;81.54;99176.92;1752170;79;20169;-72
2022/02/20 19:05:57;;;;;;;;;;;;;;;6.59;81.54;99172.59;1757808;79;20149;-72
2022/02/20 19:08:23;;;;;;;;;;;;;;;6.62;81.56;99169.59;1756096;79;21870;-72
2022/02/20 19:10:50;;;;;;;;;;;;;;;6.63;81.55;99167.28;1744613;79;20176;-71
2022/02/20 19:13:16;;;;;;;;;;;;;;;6.68;81.55;99166.27;1752520;79;20492;-72
2022/02/20 19:15:42;;;;;;;;;;;;;;;6.70;81.52;99162.93;1753716;79;20258;-71
2022/02/20 19:18:08;;;;;;;;;;;;;;;6.73;81.52;99155.45;1753191;79;20176;-72
2022/02/20 19:20:34;;;;;;;;;;;;;;;6.73;81.49;99158.10;1760833;79;21215;-72
2022/02/20 19:23:00;;;;;;;;;;;;;;;6.73;81.48;99159.92;1762878;79;20282;-72
2022/02/20 19:25:26;;;;;;;;;;;;;;;6.74;81.44;99149.66;1742914;79;20204;-72
2022/02/20 19:27:51;;;;;;;;;;;;;;;6.76;81.44;99142.34;1752799;79;20820;-72
2022/02/20 19:30:17;;;;;;;;;;;;;;;6.78;81.40;99139.04;1763323;79;20267;-72
2022/02/20 19:32:43;;;;;;;;;;;;;;;6.79;81.33;99142.02;1759674;79;21038;-72
2022/02/20 19:35:09;;;;;;;;;;;;;;;6.80;81.28;99133.88;1758149;79;20179;-72
2022/02/20 19:37:35;;;;;;;;;;;;;;;6.84;81.24;99129.88;1757334;79;20265;-72
2022/02/20 19:40:03;;;;;;;;;;;;;;;6.89;81.18;99132.01;1754818;79;20181;-72
2022/02/20 19:42:29;;;;;;;;;;;;;;;6.91;81.11;99126.02;1763124;79;20160;-72
2022/02/20 19:44:55;;;;;;;;;;;;;;;6.93;81.07;99121.38;1762595;79;20655;-72
2022/02/20 19:47:21;;;;;;;;;;;;;;;6.95;81.01;99116.71;1758965;79;20175;-72
2022/02/20 19:49:47;;;;;;;;;;;;;;;6.98;80.94;99117.67;1766010;79;20351;-72
2022/02/20 19:52:13;;;;;;;;;;;;;;;6.99;80.87;99118.01;1761835;78;20399;-72
2022/02/20 19:54:39;;;;;;;;;;;;;;;7.03;80.83;99115.33;1771953;78;21007;-72
2022/02/20 19:57:05;;;;;;;;;;;;;;;7.07;80.74;99102.05;1765087;78;21132;-72
2022/02/20 19:59:31;;;;;;;;;;;;;;;7.12;80.67;99101.48;1769250;80;20796;-71
2022/02/20 20:02:00;;;;;;;;;;;;;;;7.16;80.59;99099.63;1752748;80;20156;-72
2022/02/20 20:04:27;;;;;;;;;;;;;;;7.19;80.48;99095.29;1752258;80;20170;-72
2022/02/20 20:07:01;;;;;;;;;;;;;;;7.22;80.39;99088.30;1765146;80;20196;-72
2022/02/20 20:09:26;;;;;;;;;;;;;;;7.22;80.34;99090.95;1766798;79;21188;-72
2022/02/20 20:11:52;;;;;;;;;;;;;;;7.23;80.24;99087.30;1758643;79;20477;-72
2022/02/20 20:14:18;;;;;;;;;;;;;;;7.23;80.19;99084.65;1758041;80;20191;-73
2022/02/20 20:16:44;;;;;;;;;;;;;;;7.23;80.11;99079.34;1764966;79;20178;-72
2022/02/20 20:19:10;;;;;;;;;;;;;;;7.28;80.02;99062.38;1760975;80;20285;-73
2022/02/20 20:21:36;;;;;;;;;;;;;;;7.34;79.86;99059.02;1763735;80;21129;-72
2022/02/20 20:24:02;;;;;;;;;;;;;;;7.38;79.72;99069.59;1755741;79;20167;-72
2022/02/20 20:26:28;;;;;;;;;;;;;;;7.39;79.60;99052.64;1759391;79;20161;-73
2022/02/20 20:28:54;;;;;;;;;;;;;;;7.37;79.51;99052.02;1761377;79;20163;-72
2022/02/20 20:31:20;;;;;;;;;;;;;;;7.39;79.43;99055.30;1760955;79;20232;-71
2022/02/20 20:33:47;;;;;;;;;;;;;;;7.41;79.37;99047.17;1763956;80;21876;-71
2022/02/20 20:36:13;;;;;;;;;;;;;;;7.42;79.26;99052.27;1766513;79;20166;-71
2022/02/20 20:38:39;;;;;;;;;;;;;;;7.38;79.17;99037.77;1767514;79;20187;-72
2022/02/20 20:41:05;;;;;;;;;;;;;;;7.35;79.11;99044.73;1789838;79;20158;-72
2022/02/20 20:43:34;;;;;;;;;;;;;;;7.33;79.05;99042.78;1809696;77;20216;-72
2022/02/20 20:46:00;;;;;;;;;;;;;;;7.32;78.99;99041.13;1818718;77;21117;-72
2022/02/20 20:48:26;;;;;;;;;;;;;;;7.31;78.94;99031.55;1819622;78;20159;-73
2022/02/20 20:50:52;;;;;;;;;;;;;;;7.31;78.91;99031.55;1818035;79;20201;-72
2022/02/20 20:53:17;;;;;;;;;;;;;;;7.29;78.89;99034.03;1837559;77;20248;-72
2022/02/20 20:55:43;;;;;;;;;;;;;;;7.27;78.90;99028.93;1822420;77;20609;-72
2022/02/20 20:58:09;;;;;;;;;;;;;;;7.25;78.88;99015.52;1819762;79;21028;-72
2022/02/20 21:00:36;;;;;;;;;;;;;;;7.22;78.87;99023.84;1819827;77;20170;-72
2022/02/20 21:03:02;;;;;;;;;;;;;;;7.22;78.89;99015.38;1819428;77;20435;-72
2022/02/20 21:05:28;;;;;;;;;;;;;;;7.23;78.91;99013.06;1817993;77;20162;-72
2022/02/20 21:07:54;;;;;;;;;;;;;;;7.24;78.89;99012.06;1836267;77;20177;-72
2022/02/20 21:10:19;;;;;;;;;;;;;;;7.23;78.90;98987.87;1829310;77;22377;-72
2022/02/20 21:12:46;;;;;;;;;;;;;;;7.25;78.92;98983.20;1848881;77;20707;-72
2022/02/20 21:15:13;;;;;;;;;;;;;;;7.24;78.92;98980.25;1816521;77;20181;-73
2022/02/20 21:17:39;;;;;;;;;;;;;;;7.24;78.92;98984.23;1805944;77;20172;-72
2022/02/20 21:20:06;;;;;;;;;;;;;;;7.28;78.94;98977.52;1807552;77;20196;-72
2022/02/20 21:22:32;;;;;;;;;;;;;;;7.28;78.94;98968.24;1814868;77;21208;-72
2022/02/20 21:24:58;;;;;;;;;;;;;;;7.29;78.93;98957.14;1828602;77;20389;-72
2022/02/20 21:27:23;;;;;;;;;;;;;;;7.29;78.93;98961.94;1819887;78;20191;-72
2022/02/20 21:29:49;;;;;;;;;;;;;;;7.28;78.94;98952.33;1819886;79;20217;-71
2022/02/20 21:32:16;;;;;;;;;;;;;;;7.28;78.92;98947.03;1820071;79;20418;-71
2022/02/20 21:34:42;;;;;;;;;;;;;;;7.28;78.94;98939.61;1814208;79;21572;-72
2022/02/20 21:37:08;;;;;;;;;;;;;;;7.26;78.96;98931.83;1804047;79;20178;-72
2022/02/20 21:39:34;;;;;;;;;;;;;;;7.26;78.97;98933.15;1804198;79;20189;-72
2022/02/20 21:42:00;;;;;;;;;;;;;;;7.27;79.00;98929.50;1799634;79;20228;-72
2022/02/20 21:44:26;;;;;;;;;;;;;;;7.27;79.02;98920.22;1808534;77;20523;-71
2022/02/20 21:46:52;;;;;;;;;;;;;;;7.26;79.04;98898.68;1820440;77;21092;-71
2022/02/20 21:49:18;;;;;;;;;;;;;;;7.27;79.09;98901.66;1808397;78;21199;-71
2022/02/20 21:51:44;;;;;;;;;;;;;;;7.27;79.10;98883.09;1808018;79;20257;-71
2022/02/20 21:54:09;;;;;;;;;;;;;;;7.28;79.14;98884.72;1806394;77;20163;-71
2022/02/20 21:56:35;;;;;;;;;;;;;;;7.28;79.17;98887.38;1791778;79;20173;-71
2022/02/20 21:59:01;;;;;;;;;;;;;;;7.29;79.22;98883.72;1777190;79;20998;-71
2022/02/20 22:01:27;;;;;;;;;;;;;;;7.31;79.25;98880.40;1805486;78;20279;-71
2022/02/20 22:03:53;;;;;;;;;;;;;;;7.29;79.27;98871.79;1802485;79;20189;-71
2022/02/20 22:06:19;;;;;;;;;;;;;;;7.32;79.31;98865.28;1802339;79;20216;-71
2022/02/20 22:08:45;;;;;;;;;;;;;;;7.37;79.34;98851.80;1802072;79;20232;-72
2022/02/20 22:11:11;;;;;;;;;;;;;;;7.40;79.38;98859.88;1802136;79;21748;-71
2022/02/20 22:13:36;;;;;;;;;;;;;;;7.41;79.40;98854.40;1804699;78;20248;-71
2022/02/20 22:16:03;;;;;;;;;;;;;;;7.42;79.41;98852.58;1791793;79;20247;-72
2022/02/20 22:18:29;;;;;;;;;;;;;;;7.41;79.42;98854.40;1803465;79;20162;-72
2022/02/20 22:20:55;;;;;;;;;;;;;;;7.42;79.45;98854.70;1779251;80;20173;-71
2022/02/20 22:23:21;;;;;;;;;;;;;;;7.43;79.46;98843.08;1779243;80;21148;-72
2022/02/20 22:25:47;;;;;;;;;;;;;;;7.43;79.46;98851.05;1778751;80;20234;-71
2022/02/20 22:28:12;;;;;;;;;;;;;;;7.40;79.48;98824.91;1778988;80;20211;-71
2022/02/20 22:30:39;;;;;;;;;;;;;;;7.39;79.51;98825.91;1778901;80;20140;-71
2022/02/20 22:33:05;;;;;;;;;;;;;;;7.37;79.53;98814.67;1779751;80;20166;-71
2022/02/20 22:35:31;;;;;;;;;;;;;;;7.35;79.60;98804.74;1779657;80;21020;-71
2022/02/20 22:38:03;;;;;;;;;;;;;;;7.34;79.67;98811.08;1779699;80;20784;-72
2022/02/20 22:40:27;;;;;;;;;;;;;;;7.32;79.70;98809.10;1779324;79;20178;-71
2022/02/20 22:42:53;;;;;;;;;;;;;;;7.28;79.75;98794.57;1784892;77;20753;-71
2022/02/20 22:45:19;;;;;;;;;;;;;;;7.25;79.80;98777.72;1802579;79;20169;-71
2022/02/20 22:47:45;;;;;;;;;;;;;;;7.25;79.86;98779.05;1802401;79;21136;-71
2022/02/20 22:50:11;;;;;;;;;;;;;;;7.22;79.93;98772.80;1825572;78;20280;-71
2022/02/20 22:52:37;;;;;;;;;;;;;;;7.20;79.96;98772.17;1837787;78;20262;-71
2022/02/20 22:55:03;;;;;;;;;;;;;;;7.19;80.03;98769.20;1836119;78;20159;-71
2022/02/20 22:57:29;;;;;;;;;;;;;;;7.19;80.12;98759.92;1836175;78;20143;-71
2022/02/20 22:59:57;;;;;;;;;;;;;;;7.19;80.20;98751.97;1824213;78;21153;-71
2022/02/20 23:02:23;;;;;;;;;;;;;;;7.20;80.25;98754.12;1801643;79;20150;-72
2022/02/20 23:04:49;;;;;;;;;;;;;;;7.19;80.34;98743.19;1801721;79;20454;-72
2022/02/20 23:07:15;;;;;;;;;;;;;;;7.16;80.41;98740.42;1813027;77;20478;-71
2022/02/20 23:09:41;;;;;;;;;;;;;;;7.16;80.49;98728.99;1828084;77;20178;-71
2022/02/20 23:12:08;;;;;;;;;;;;;;;7.15;80.54;98720.22;1850855;77;21043;-71
2022/02/20 23:14:34;;;;;;;;;;;;;;;7.15;80.65;98729.49;1809720;77;20470;-71
2022/02/20 23:17:00;;;;;;;;;;;;;;;7.17;80.73;98730.14;1796014;79;20168;-71
2022/02/20 23:19:26;;;;;;;;;;;;;;;7.17;80.84;98705.46;1781830;80;20220;-71
2022/02/20 23:21:51;;;;;;;;;;;;;;;7.18;80.90;98697.30;1794933;79;20208;-71
2022/02/20 23:24:17;;;;;;;;;;;;;;;7.18;81.00;98676.09;1802335;79;21906;-71
2022/02/20 23:26:43;;;;;;;;;;;;;;;7.19;81.09;98687.02;1786162;79;20263;-72
2022/02/20 23:29:09;;;;;;;;;;;;;;;7.24;81.18;98691.27;1782009;79;20267;-72
2022/02/20 23:31:35;;;;;;;;;;;;;;;7.24;81.23;98681.16;1780611;79;20225;-72
2022/02/20 23:34:01;;;;;;;;;;;;;;;7.26;81.29;98651.28;1765618;79;20191;-71
2022/02/20 23:36:27;;;;;;;;;;;;;;;7.29;81.39;98667.63;1765764;81;21089;-72
2022/02/20 23:38:54;;;;;;;;;;;;;;;7.25;81.40;98670.34;1766878;80;20216;-71
2022/02/20 23:41:20;;;;;;;;;;;;;;;7.24;81.44;98664.75;1770304;78;20153;-72
2022/02/20 23:43:46;;;;;;;;;;;;;;;7.25;81.52;98662.89;1830137;78;20265;-72
2022/02/20 23:46:13;;;;;;;;;;;;;;;7.26;81.58;98646.80;1871729;76;20194;-71
2022/02/20 23:48:39;;;;;;;;;;;;;;;7.26;81.67;98647.30;1876750;75;21014;-71
2022/02/20 23:51:05;;;;;;;;;;;;;;;7.25;81.71;98638.53;1897278;75;20196;-72
2022/02/20 23:53:31;;;;;;;;;;;;;;;7.25;81.74;98630.58;1897139;75;20136;-72
2022/02/20 23:55:58;;;;;;;;;;;;;;;7.24;81.76;98623.66;1897186;74;20185;-71
2022/02/20 23:58:24;;;;;;;;;;;;;;;7.23;81.82;98615.38;1897312;75;20159;-72
